Wetterdaten: aktuell Dienstag, 23.04.2019 04:20
Datum Zeit Temperatur Bodentemp. Luftfeuchte Luftdruck Niederschlag Windgeschw. Windrichtung Windrichtung Sonnenschein Nieder.dauer Evapotrans. Solarstrahl. Taupunkt Windchill Windböen
23.04.2019 04:20 9,8 °C 7,8 °C 74 % 1012,4 hPa 0,0 l/m² 9,0 km/h (2 Bft) O 90 ° 0 min 0 min 0 mm 0 W/m² 5,4 °C 8,0 °C 14,4 km/h (3 Bft)
23.04.2019 03:20 10,6 °C 8,9 °C 70 % 1012,9 hPa 0,0 l/m² 7,2 km/h (2 Bft) O 90 ° 0 min 0 min 0 mm 0 W/m² 5,4 °C 10,0 °C 12,6 km/h (3 Bft)
23.04.2019 02:20 11,1 °C 8,9 °C 68 % 1013,2 hPa 0,0 l/m² 14,4 km/h (3 Bft) O-SO 112 ° 0 min 0 min 0 mm 0 W/m² 5,4 °C 6,7 °C 25,1 km/h (4 Bft)
23.04.2019 01:20 10,4 °C 8,3 °C 68 % 1013,4 hPa 0,0 l/m² 10,8 km/h (2 Bft) O 90 ° 0 min 0 min 0 mm 0 W/m² 4,8 °C 7,6 °C 16,1 km/h (3 Bft)
23.04.2019 00:20 9,7 °C 7,2 °C 75 % 1014,0 hPa 0,0 l/m² 0,0 km/h (0 Bft) N 0 ° 0 min 0 min 0 mm 0 W/m² 5,5 °C 9,7 °C 0,0 km/h (0 Bft)
22.04.2019 23:20 10,7 °C 8,9 °C 72 % 1014,5 hPa 0,0 l/m² 10,8 km/h (2 Bft) O 90 ° 0 min 0 min 0 mm 0 W/m² 5,9 °C 7,9 °C 16,1 km/h (3 Bft)
22.04.2019 22:20 11,4 °C 9,4 °C 68 % 1014,5 hPa 0,0 l/m² 14,4 km/h (3 Bft) O 90 ° 0 min 0 min 0 mm 0 W/m² 5,7 °C 7,1 °C 21,5 km/h (4 Bft)
22.04.2019 21:20 12,3 °C 10,6 °C 64 % 1014,5 hPa 0,0 l/m² 14,4 km/h (3 Bft) O 90 ° 2 min 0 min 0 mm 0 W/m² 5,7 °C 8,2 °C 23,3 km/h (4 Bft)
22.04.2019 20:20 13,7 °C 12,2 °C 61 % 1014,0 hPa 0,0 l/m² 9,0 km/h (2 Bft) O 90 ° 31 min 0 min 0 mm 16 W/m² 6,3 °C 12,2 °C 14,4 km/h (3 Bft)
22.04.2019 19:20 16,2 °C 13,9 °C 49 % 1013,6 hPa 0,0 l/m² 1,8 km/h (1 Bft) O 90 ° 60 min 0 min 0 mm 135 W/m² 5,5 °C 16,2 °C 3,6 km/h (1 Bft)
22.04.2019 18:20 17,8 °C 16,1 °C 40 % 1013,9 hPa 0,0 l/m² 9,0 km/h (2 Bft) O 90 ° 60 min 0 min 0 mm 283 W/m² 4,0 °C 16,6 °C 19,7 km/h (3 Bft)
22.04.2019 17:20 18,4 °C 16,7 °C 38 % 1014,0 hPa 0,0 l/m² 14,4 km/h (3 Bft) O 90 ° 60 min 0 min 0 mm 434 W/m² 3,8 °C 15,5 °C 26,9 km/h (4 Bft)
22.04.2019 16:20 18,9 °C 17,2 °C 34 % 1014,5 hPa 0,0 l/m² 12,6 km/h (3 Bft) O 90 ° 60 min 0 min 0 mm 575 W/m² 2,7 °C 16,6 °C 17,9 km/h (3 Bft)
22.04.2019 15:20 18,9 °C 17,2 °C 35 % 1015,1 hPa 0,0 l/m² 12,6 km/h (3 Bft) O 90 ° 60 min 0 min 1 mm 682 W/m² 3,1 °C 16,6 °C 17,9 km/h (3 Bft)
22.04.2019 14:20 18,9 °C 17,2 °C 35 % 1015,8 hPa 0,0 l/m² 10,8 km/h (2 Bft) O 90 ° 60 min 0 min 1 mm 752 W/m² 3,1 °C 17,1 °C 14,4 km/h (3 Bft)
22.04.2019 13:20 18,9 °C 16,7 °C 33 % 1016,4 hPa 0,0 l/m² 14,4 km/h (3 Bft) O-NO 67 ° 60 min 0 min 1 mm 779 W/m² 2,3 °C 16,1 °C 19,7 km/h (3 Bft)
22.04.2019 12:20 18,9 °C 16,7 °C 33 % 1017,0 hPa 0,0 l/m² 16,1 km/h (3 Bft) O 90 ° 60 min 0 min 0 mm 754 W/m² 2,3 °C 15,6 °C 19,7 km/h (3 Bft)
22.04.2019 11:20 17,9 °C 15,0 °C 35 % 1017,6 hPa 0,0 l/m² 9,0 km/h (2 Bft) O-SO 112 ° 60 min 0 min 0 mm 689 W/m² 2,2 °C 16,7 °C 10,8 km/h (2 Bft)
22.04.2019 10:20 16,4 °C 13,9 °C 39 % 1017,8 hPa 0,0 l/m² 9,0 km/h (2 Bft) O-SO 112 ° 60 min 0 min 0 mm 584 W/m² 2,4 °C 15,1 °C 14,4 km/h (3 Bft)
22.04.2019 09:20 14,8 °C 11,7 °C 42 % 1018,1 hPa 0,0 l/m² 5,4 km/h (1 Bft) O 90 ° 60 min 0 min 0 mm 448 W/m² 2,0 °C 14,8 °C 10,8 km/h (2 Bft)
22.04.2019 08:20 12,3 °C 8,9 °C 52 % 1017,7 hPa 0,0 l/m² 5,4 km/h (1 Bft) O-NO 67 ° 60 min 0 min 0 mm 294 W/m² 2,7 °C 12,3 °C 10,8 km/h (2 Bft)
22.04.2019 07:20 8,1 °C 5,6 °C 71 % 1017,6 hPa 0,0 l/m² 0,0 km/h (0 Bft) N 0 ° 33 min 0 min 0 mm 141 W/m² 3,2 °C 8,1 °C 0,0 km/h (0 Bft)
22.04.2019 06:20 7,3 °C 4,4 °C 70 % 1017,6 hPa 0,0 l/m² 0,0 km/h (0 Bft) N 0 ° 5 min 0 min 0 mm 19 W/m² 2,2 °C 7,3 °C 0,0 km/h (0 Bft)
22.04.2019 05:20 7,9 °C 5,0 °C 69 % 1018,0 hPa 0,0 l/m² 0,0 km/h (0 Bft) N 0 ° 0 min 0 min 0 mm 0 W/m² 2,6 °C 7,9 °C 0,0 km/h (0 Bft)
22.04.2019 05:00 7,8 °C 5,0 °C 71 % 1018,1 hPa 0,0 l/m² 0,0 km/h (0 Bft) N 0 ° 0 min 0 min 0 mm 0 W/m² 2,9 °C 7,8 °C 0,0 km/h (0 Bft)
_ Min-Zeit 06:07 05:31 11:26 04:15 - 05:00 - - - - - - 09:58 02:12 05:00
Minimum _ 7,2 °C 4,4 °C 32 % 1012,4 hPa - 0,0 km/h (0 Bft) - - - - - - 0,9 °C 5,4 °C 0,0 km/h (0 Bft)
_ Max-Zeit 13:51 14:05 00:44 05:00 05:00 17:10 - - 06:16 05:00 13:00 13:04 22:21 15:04 17:10
Maximum _ 19,3 °C 17,8 °C 76 % 1018,1 hPa 0,0 l/m² 23,3 km/h
O (4 Bft)
- - 1 min 0 min 1 mm 782 W/m² 6,5 °C 19,1 °C 37,7 km/h
O (5 Bft)
Durchschnitt _ 13,4 °C 11,3 °C 55 % 1015,6 hPa #0,0 l/m² 7,6 km/h (2 Bft) O - #0 min. #0 min. #0,151 mm 0 W/m² 3,8 °C 12,0 °C 12,7 km/h (3 Bft)